»·PEaware :: SKW5291 KSFO-KPSP

SKW5291 :: KSFO-KPSP

FLIGHT INFORMATION

Flight Status: Arrived
Operator:
SkyWest Airlines
More flights by this operator :: More flights under this callsign
Pilot: Alfredo R. (12181)
Aircraft: CANADAIR CL-600 CRJ-200
(CRJ2)
More flights by this aircraft type
Origin: KSFO San Francisco Intl
United States
Destination: KPSP Palm Springs Intl
United States
More flights between these airports :: More routes between these airports
Route: +SSTIK4 LOSHN CLASN SIZLR3
File this flight plan on PilotEdge
Remarks: RMK / SIMBRIEF
Altitude:
(Current/Filed)
310ft
Speed:
(Current/Filed)
436kts
Departed: 14-Jul-20 05:33 PM
Arrived: 14-Jul-20 06:46 PM
Distance/Time
Traveled:
365nm/1:13
Distance/Time
To Go:
Arrived

Flight Plot

Page will automatically refresh every two minutes.

Flight plan parsing failed; only flown route is shown


Map Options




Map Legend


Flown Route
Filed Route
Departure Airport
Arrival Airport
Navaid (VOR, NDB)
Fix

Horizontal Profiles

Position Reports

Time Latitude Longitude Heading Altitude Ground
Speed
14-Jul-20 17:01 37.621653 -122.388829 237 28ft 0kts
14-Jul-20 17:02 37.621653 -122.388829 237 28ft 0kts
14-Jul-20 17:03 37.621653 -122.388829 237 28ft 0kts
14-Jul-20 17:04 37.621653 -122.388829 237 28ft 0kts
14-Jul-20 17:05 37.621653 -122.388829 237 28ft 0kts
14-Jul-20 17:06 37.621653 -122.388829 237 28ft 0kts
14-Jul-20 17:07 37.621653 -122.388829 237 28ft 0kts
14-Jul-20 17:08 37.621653 -122.388829 237 28ft 0kts
14-Jul-20 17:09 37.621653 -122.388829 237 28ft 0kts
14-Jul-20 17:10 37.621653 -122.388829 237 28ft 0kts
14-Jul-20 17:11 37.621653 -122.388829 237 28ft 0kts
14-Jul-20 17:12 37.621653 -122.388829 237 28ft 0kts
14-Jul-20 17:13 37.621653 -122.388829 237 28ft 0kts
14-Jul-20 17:15 37.621653 -122.388829 237 28ft 0kts
14-Jul-20 17:16 37.621653 -122.388829 237 28ft 0kts
14-Jul-20 17:17 37.621653 -122.388829 237 28ft 0kts
14-Jul-20 17:18 37.621653 -122.388829 237 28ft 0kts
14-Jul-20 17:19 37.621653 -122.388829 237 28ft 0kts
14-Jul-20 17:20 37.621759 -122.388607 234 28ft 1kts
14-Jul-20 17:21 37.622274 -122.388352 151 27ft 2kts
14-Jul-20 17:22 37.622573 -122.388969 117 26ft 0kts
14-Jul-20 17:23 37.622574 -122.388972 117 26ft 0kts
14-Jul-20 17:24 37.622574 -122.388972 117 26ft 0kts
14-Jul-20 17:25 37.622513 -122.388827 117 26ft 2kts
14-Jul-20 17:26 37.621518 -122.386459 118 28ft 12kts
14-Jul-20 17:27 37.619651 -122.381992 118 28ft 16kts
14-Jul-20 17:28 37.615526 -122.380372 207 28ft 16kts
14-Jul-20 17:29 37.611248 -122.383198 207 28ft 16kts
14-Jul-20 17:30 37.608529 -122.384009 118 27ft 6kts
14-Jul-20 17:30 37.608481 -122.383896 118 27ft 0kts
14-Jul-20 17:32 37.608238 -122.383320 118 27ft 9kts
14-Jul-20 17:33 37.617880 -122.376332 27 21ft 133kts
14-Jul-20 17:34 37.669259 -122.359908 359 2102ft 218kts
14-Jul-20 17:34 37.698792 -122.398897 255 4218ft 221kts
14-Jul-20 17:35 37.644252 -122.434244 193 6815ft 251kts
14-Jul-20 17:37 37.557267 -122.457386 191 9836ft 286kts
14-Jul-20 17:37 37.490564 -122.460938 151 12014ft 300kts
14-Jul-20 17:38 37.431223 -122.382618 129 15038ft 322kts
14-Jul-20 17:39 37.373771 -122.294174 128 17692ft 334kts
14-Jul-20 17:40 37.314265 -122.202119 128 18932ft 340kts
14-Jul-20 17:41 37.255190 -122.110903 128 18954ft 338kts
14-Jul-20 17:42 37.195639 -122.019242 128 18955ft 340kts
14-Jul-20 17:43 37.135864 -121.927441 128 18978ft 341kts
14-Jul-20 17:44 37.077850 -121.838607 128 20224ft 342kts
14-Jul-20 17:45 37.017041 -121.745748 128 22366ft 352kts
14-Jul-20 17:46 36.955980 -121.652766 128 23487ft 378kts
14-Jul-20 17:47 36.888529 -121.550355 128 24918ft 384kts
14-Jul-20 17:48 36.820306 -121.447096 128 26151ft 391kts
14-Jul-20 17:49 36.751837 -121.343780 129 27289ft 398kts
14-Jul-20 17:50 36.682156 -121.238955 129 28367ft 404kts
14-Jul-20 17:51 36.612077 -121.133871 129 29385ft 409kts
14-Jul-20 17:52 36.539248 -121.025015 129 30324ft 416kts
14-Jul-20 17:53 36.465248 -120.914467 129 31014ft 421kts
14-Jul-20 17:54 36.389637 -120.801253 129 30954ft 436kts
14-Jul-20 17:55 36.311670 -120.684894 129 30881ft 439kts
14-Jul-20 17:56 36.233597 -120.568806 128 30900ft 440kts
14-Jul-20 17:57 36.154715 -120.451880 128 30881ft 437kts
14-Jul-20 17:58 36.077957 -120.338474 129 30882ft 437kts
14-Jul-20 17:59 35.999867 -120.223544 129 30882ft 437kts
14-Jul-20 18:00 35.922040 -120.109328 129 30882ft 437kts
14-Jul-20 18:01 35.846438 -119.994732 116 30871ft 434kts
14-Jul-20 18:02 35.794541 -119.858877 113 30881ft 435kts
14-Jul-20 18:03 35.743178 -119.722500 113 30870ft 436kts
14-Jul-20 18:04 35.691886 -119.586869 114 30870ft 431kts
14-Jul-20 18:05 35.628705 -119.460737 131 30875ft 438kts
14-Jul-20 18:06 35.546438 -119.349155 132 30871ft 440kts
14-Jul-20 18:07 35.465948 -119.240776 132 30878ft 439kts
14-Jul-20 18:08 35.382987 -119.129406 132 30881ft 439kts
14-Jul-20 18:09 35.300199 -119.018817 133 30881ft 438kts
14-Jul-20 18:10 35.217118 -118.908736 133 30882ft 440kts
14-Jul-20 18:11 35.133604 -118.798436 133 30966ft 440kts
14-Jul-20 18:12 35.050494 -118.689020 133 31120ft 439kts
14-Jul-20 18:13 34.968516 -118.581454 132 29403ft 435kts
14-Jul-20 18:14 34.887265 -118.475147 132 26404ft 421kts
14-Jul-20 18:15 34.811428 -118.376246 132 24383ft 399kts
14-Jul-20 18:16 34.747849 -118.285141 128 23341ft 389kts
14-Jul-20 18:17 34.678614 -118.178046 128 22163ft 397kts
14-Jul-20 18:18 34.612289 -118.075683 128 21164ft 387kts
14-Jul-20 18:19 34.555062 -117.965054 116 20162ft 384kts
14-Jul-20 18:20 34.507602 -117.849557 116 19412ft 380kts
14-Jul-20 18:21 34.460638 -117.735213 116 18807ft 374kts
14-Jul-20 18:22 34.414148 -117.621599 116 18215ft 380kts
14-Jul-20 18:23 34.367696 -117.508134 117 17606ft 368kts
14-Jul-20 18:24 34.322266 -117.397513 117 17005ft 366kts
14-Jul-20 18:25 34.275302 -117.290265 120 16411ft 363kts
14-Jul-20 18:26 34.226057 -117.184625 121 15989ft 357kts
14-Jul-20 18:27 34.176787 -117.079710 121 15991ft 361kts
14-Jul-20 18:28 34.127504 -116.975036 121 15682ft 363kts
14-Jul-20 18:29 34.078956 -116.870494 120 14515ft 359kts
14-Jul-20 18:30 34.030969 -116.766413 120 13299ft 348kts
14-Jul-20 18:31 33.986209 -116.668255 120 12044ft 323kts
14-Jul-20 18:32 33.943673 -116.575056 120 10518ft 312kts
14-Jul-20 18:33 33.892949 -116.493618 123 9042ft 305kts
14-Jul-20 18:34 33.840651 -116.416392 131 7563ft 301kts
14-Jul-20 18:35 33.786727 -116.344358 131 6069ft 284kts
14-Jul-20 18:36 33.735111 -116.276584 131 4555ft 269kts
14-Jul-20 18:37 33.686976 -116.221011 173 3918ft 211kts
14-Jul-20 18:38 33.659172 -116.257692 304 3991ft 181kts
14-Jul-20 18:39 33.687467 -116.309903 300 3929ft 195kts
14-Jul-20 18:40 33.704228 -116.368688 278 3206ft 172kts
14-Jul-20 18:41 33.730960 -116.406382 317 2348ft 143kts
14-Jul-20 18:42 33.757531 -116.437759 317 1518ft 132kts
14-Jul-20 18:43 33.783776 -116.467222 325 896ft 125kts
14-Jul-20 18:44 33.812442 -116.492167 323 513ft 126kts
14-Jul-20 18:45 33.832263 -116.509944 327 435ft 35kts
14-Jul-20 18:46 33.833160 -116.511579 243 441ft 0kts
14-Jul-20 18:47 33.833075 -116.511755 231 441ft 4kts
14-Jul-20 18:48 33.829388 -116.509556 143 431ft 21kts
14-Jul-20 18:49 33.825602 -116.506170 183 416ft 10kts
14-Jul-20 18:50 33.823906 -116.506543 193 414ft 0kts

Navigation Log

Ident Type
Flight plan parsing failed, navigation log unavailable